createdAt,value
2017-10-20T00:00:56.963Z,60.00
2017-10-20T00:03:25.055Z,60.00
2017-10-20T00:05:53.951Z,59.60
2017-10-20T00:08:22.045Z,59.60
2017-10-20T00:10:51.269Z,59.30
2017-10-20T00:13:19.410Z,58.90
2017-10-20T00:15:47.497Z,58.30
2017-10-20T00:20:44.990Z,57.40
2017-10-20T00:23:13.483Z,56.50
2017-10-20T00:25:41.595Z,56.50
2017-10-20T00:28:09.685Z,56.70
2017-10-20T00:30:38.951Z,57.30
2017-10-20T00:33:07.066Z,58.80
2017-10-20T00:35:35.927Z,59.30
2017-10-20T00:38:04.042Z,58.90
2017-10-20T00:40:32.549Z,58.80
2017-10-20T00:43:00.674Z,58.60
2017-10-20T00:45:28.774Z,58.30
2017-10-20T00:47:57.293Z,58.60
2017-10-20T00:50:25.398Z,60.00
2017-10-20T00:52:53.492Z,59.70
2017-10-20T00:55:21.622Z,59.10
2017-10-20T00:57:49.717Z,59.90
2017-10-20T01:00:17.820Z,59.90
2017-10-20T01:05:15.304Z,59.30
2017-10-20T01:07:43.409Z,58.20
2017-10-20T01:10:13.597Z,58.90
2017-10-20T01:12:41.699Z,59.40
2017-10-20T01:15:10.593Z,59.30
2017-10-20T01:17:38.671Z,59.00
2017-10-20T01:20:06.796Z,58.80
2017-10-20T01:22:34.897Z,58.70
2017-10-20T01:25:03.010Z,59.50
2017-10-20T01:27:31.114Z,60.00
2017-10-20T01:29:59.238Z,61.00
2017-10-20T01:32:27.328Z,61.70
2017-10-20T01:34:56.207Z,61.60
2017-10-20T01:37:24.312Z,60.30
2017-10-20T01:39:53.177Z,61.60
2017-10-20T01:45:01.394Z,61.60
2017-10-20T01:47:29.480Z,60.60
2017-10-20T01:49:57.589Z,60.70
2017-10-20T01:52:25.670Z,60.10
2017-10-20T01:54:53.783Z,59.70
2017-10-20T01:57:21.889Z,59.30
2017-10-20T01:59:51.119Z,59.30
2017-10-20T02:02:19.238Z,59.20
2017-10-20T02:04:48.453Z,59.40
2017-10-20T02:07:17.316Z,60.90
2017-10-20T02:09:45.415Z,60.30
2017-10-20T02:12:13.522Z,60.50
2017-10-20T02:14:41.654Z,60.00
2017-10-20T02:17:10.130Z,60.00
2017-10-20T02:19:39.026Z,60.00
2017-10-20T02:22:07.901Z,60.80
2017-10-20T02:24:36.386Z,60.00
2017-10-20T02:27:04.510Z,60.00
2017-10-20T02:29:32.601Z,60.10
2017-10-20T02:32:00.930Z,60.20
2017-10-20T02:34:29.805Z,60.90
2017-10-20T02:36:57.887Z,59.90
2017-10-20T02:39:26.781Z,60.30
2017-10-20T02:41:55.266Z,59.40
2017-10-20T02:44:24.119Z,59.50
2017-10-20T02:46:52.230Z,59.20
2017-10-20T02:49:20.312Z,59.20
2017-10-20T02:51:48.433Z,59.90
2017-10-20T02:56:46.645Z,60.70
2017-10-20T02:59:14.785Z,59.70
2017-10-20T03:01:42.903Z,59.60
2017-10-20T03:04:11.766Z,60.50
2017-10-20T03:06:39.893Z,60.40
2017-10-20T03:09:07.987Z,61.00
2017-10-20T03:11:36.095Z,61.70
2017-10-20T03:14:04.191Z,61.20
2017-10-20T03:16:33.410Z,60.30
2017-10-20T03:19:01.510Z,60.00
2017-10-20T03:21:29.645Z,61.00
2017-10-20T03:23:59.230Z,60.80
2017-10-20T03:26:27.322Z,60.90
2017-10-20T03:28:55.830Z,60.70
2017-10-20T03:31:23.916Z,61.20
2017-10-20T03:33:52.049Z,61.70
2017-10-20T03:38:50.308Z,61.80
2017-10-20T03:41:18.427Z,60.40
2017-10-20T03:43:46.526Z,60.80
2017-10-20T03:46:14.641Z,60.70
2017-10-20T03:48:42.722Z,60.70
2017-10-20T03:51:11.599Z,61.60
2017-10-20T03:53:39.824Z,61.00
2017-10-20T03:56:07.948Z,61.70
2017-10-20T03:58:36.430Z,62.40
2017-10-20T04:01:04.919Z,62.50
2017-10-20T04:03:33.256Z,62.50
2017-10-20T04:06:01.347Z,63.00
2017-10-20T04:08:29.450Z,62.40
2017-10-20T04:10:58.323Z,62.10
2017-10-20T04:13:26.422Z,61.80
2017-10-20T04:15:54.511Z,62.10
2017-10-20T04:18:22.633Z,61.80
2017-10-20T04:20:56.342Z,61.60
2017-10-20T04:23:24.443Z,62.00
2017-10-20T04:25:53.701Z,63.10
2017-10-20T04:28:21.787Z,64.40
2017-10-20T04:30:49.917Z,65.20
2017-10-20T04:33:18.411Z,65.90
2017-10-20T04:35:46.879Z,67.70
2017-10-20T04:38:14.966Z,68.80
2017-10-20T04:40:43.052Z,69.40
2017-10-20T04:43:11.187Z,67.60
2017-10-20T04:45:39.281Z,68.10
2017-10-20T04:48:08.123Z,72.40
2017-10-20T04:50:36.231Z,70.10
2017-10-20T04:53:04.336Z,71.00
2017-10-20T04:55:33.583Z,71.70
2017-10-20T04:58:01.675Z,71.70
2017-10-20T05:00:29.808Z,74.80
2017-10-20T05:02:59.125Z,69.70
2017-10-20T05:05:27.228Z,72.30
2017-10-20T05:07:55.350Z,68.50
2017-10-20T05:10:24.947Z,69.60
2017-10-20T05:12:53.035Z,68.60
2017-10-20T05:15:21.559Z,68.10
2017-10-20T05:17:49.646Z,68.80
2017-10-20T05:20:17.738Z,67.40
2017-10-20T05:22:45.854Z,66.20
2017-10-20T05:25:14.710Z,68.00
2017-10-20T05:27:43.210Z,67.00
2017-10-20T05:30:13.512Z,64.80
2017-10-20T05:32:41.602Z,65.60
2017-10-20T05:35:11.210Z,65.50
2017-10-20T05:37:39.733Z,65.20
2017-10-20T05:40:07.834Z,65.80
2017-10-20T05:45:06.066Z,64.70
2017-10-20T05:47:34.937Z,65.90
2017-10-20T05:50:03.067Z,67.50
2017-10-20T05:52:31.152Z,66.80
2017-10-20T05:54:59.249Z,65.10
2017-10-20T05:57:28.846Z,65.60
2017-10-20T05:59:56.961Z,66.10
2017-10-20T06:02:25.815Z,66.90
2017-10-20T06:04:53.929Z,64.20
2017-10-20T06:07:23.531Z,62.10
2017-10-20T06:09:52.395Z,63.10
2017-10-20T06:12:20.504Z,63.60
2017-10-20T06:14:49.756Z,63.80
2017-10-20T06:19:47.211Z,63.10
2017-10-20T06:22:15.322Z,61.80
2017-10-20T06:24:43.433Z,62.80
2017-10-20T06:27:11.561Z,65.60
2017-10-20T06:29:39.634Z,64.00
2017-10-20T06:32:07.742Z,64.00
2017-10-20T06:34:36.222Z,63.50
2017-10-20T06:37:04.348Z,65.90
2017-10-20T06:39:32.435Z,63.50
2017-10-20T06:42:00.587Z,64.20
2017-10-20T06:44:28.696Z,65.90
2017-10-20T06:46:57.214Z,66.50
2017-10-20T06:49:25.302Z,66.00
2017-10-20T06:51:53.402Z,66.40
2017-10-20T06:54:21.511Z,66.40
2017-10-20T06:56:49.618Z,67.10
2017-10-20T06:59:18.508Z,66.60
2017-10-20T07:01:46.594Z,68.20
2017-10-20T07:04:14.766Z,67.10
2017-10-20T07:06:43.585Z,66.50
2017-10-20T07:11:41.101Z,66.40
2017-10-20T07:14:09.935Z,67.30
2017-10-20T07:16:38.039Z,66.70
2017-10-20T07:19:11.311Z,66.50
2017-10-20T07:21:39.424Z,66.60
2017-10-20T07:24:08.670Z,66.00
2017-10-20T07:26:37.181Z,65.90
2017-10-20T07:29:05.687Z,67.10
2017-10-20T07:31:34.186Z,68.40
2017-10-20T07:34:02.312Z,68.60
2017-10-20T07:36:31.166Z,67.50
2017-10-20T07:41:29.142Z,64.00
2017-10-20T07:43:57.993Z,65.10
2017-10-20T07:46:26.106Z,66.00
2017-10-20T07:51:23.606Z,68.20
2017-10-20T07:53:51.734Z,67.00
2017-10-20T07:56:19.834Z,67.00
2017-10-20T07:58:47.922Z,66.50
2017-10-20T08:01:16.037Z,66.50
2017-10-20T08:03:44.155Z,65.00
2017-10-20T08:06:12.252Z,66.40
2017-10-20T08:08:40.362Z,66.10
2017-10-20T08:13:37.861Z,66.20
2017-10-20T08:16:05.986Z,66.80
2017-10-20T08:18:34.915Z,67.90
2017-10-20T08:21:03.031Z,67.50
2017-10-20T08:23:31.910Z,67.30
2017-10-20T08:26:00.034Z,68.00
2017-10-20T08:28:28.902Z,67.60
2017-10-20T08:30:57.778Z,67.70
2017-10-20T08:33:25.874Z,67.20
2017-10-20T08:35:54.762Z,67.90
2017-10-20T08:38:23.634Z,67.90
2017-10-20T08:40:51.724Z,66.90
2017-10-20T08:45:49.988Z,67.50
2017-10-20T08:48:18.077Z,66.40
2017-10-20T08:50:46.190Z,65.10
2017-10-20T08:53:14.306Z,65.10
2017-10-20T08:55:42.435Z,65.30
2017-10-20T08:58:10.535Z,65.90
2017-10-20T09:00:38.631Z,61.40
2017-10-20T09:03:06.764Z,62.20
2017-10-20T09:08:04.983Z,64.20
2017-10-20T09:10:33.122Z,63.70
2017-10-20T09:13:01.223Z,65.00
2017-10-20T09:15:29.312Z,60.90
2017-10-20T09:17:57.523Z,62.80
2017-10-20T09:20:25.620Z,62.40
2017-10-20T09:22:53.734Z,61.70
2017-10-20T09:25:21.823Z,60.10
2017-10-20T09:27:51.062Z,55.90
2017-10-20T09:30:19.170Z,54.60
2017-10-20T09:32:47.267Z,52.90
2017-10-20T09:35:15.363Z,47.90
2017-10-20T09:37:43.458Z,43.10
2017-10-20T09:40:11.551Z,40.30
2017-10-20T09:45:09.036Z,42.60
2017-10-20T09:47:38.662Z,41.20
2017-10-20T09:50:07.536Z,37.90
2017-10-20T09:52:35.643Z,35.30
2017-10-20T09:55:03.737Z,33.40
2017-10-20T09:57:31.844Z,31.00
2017-10-20T09:59:59.940Z,29.00
2017-10-20T10:02:28.055Z,28.20
2017-10-20T10:04:56.169Z,28.20
2017-10-20T10:09:55.716Z,33.10
2017-10-20T10:12:23.822Z,37.00
2017-10-20T10:17:21.298Z,41.60
2017-10-20T10:19:49.394Z,44.10
2017-10-20T10:22:17.499Z,47.00
2017-10-20T10:24:46.011Z,47.80
2017-10-20T10:29:43.527Z,50.00
2017-10-20T10:32:11.622Z,50.50
2017-10-20T10:34:39.743Z,50.60
2017-10-20T10:37:08.611Z,51.40
2017-10-20T10:39:36.704Z,51.00
2017-10-20T10:42:05.187Z,50.80
2017-10-20T10:44:33.698Z,50.10
2017-10-20T10:47:02.559Z,50.10
2017-10-20T10:49:31.411Z,51.20
2017-10-20T10:51:59.560Z,50.60
2017-10-20T10:54:27.651Z,50.90
2017-10-20T10:56:56.935Z,50.30
2017-10-20T10:59:24.985Z,50.80
2017-10-20T11:04:23.990Z,50.90
2017-10-20T11:07:03.891Z,52.00
2017-10-20T11:09:31.996Z,52.70
2017-10-20T11:12:12.232Z,52.70
2017-10-20T11:14:40.747Z,52.60
2017-10-20T11:17:08.823Z,52.60
2017-10-20T11:19:36.903Z,55.00
2017-10-20T11:22:06.506Z,55.60
2017-10-20T11:24:35.718Z,55.10
2017-10-20T11:27:03.827Z,52.50
2017-10-20T11:29:31.911Z,53.40
2017-10-20T11:31:59.995Z,51.60
2017-10-20T11:34:28.106Z,51.00
2017-10-20T11:36:56.188Z,50.40
2017-10-20T11:39:24.272Z,49.70
2017-10-20T11:41:52.374Z,49.60
2017-10-20T11:46:49.852Z,51.00
2017-10-20T11:49:19.035Z,51.30
2017-10-20T11:51:47.091Z,52.00
2017-10-20T11:56:44.707Z,54.10
2017-10-20T11:59:13.573Z,55.60
2017-10-20T12:01:41.659Z,57.40
2017-10-20T12:04:09.751Z,59.00
2017-10-20T12:06:39.377Z,60.90
2017-10-20T12:11:37.328Z,62.40
2017-10-20T12:14:05.404Z,62.40
2017-10-20T12:16:34.623Z,62.80
2017-10-20T12:21:33.570Z,63.00
2017-10-20T12:29:01.130Z,61.30
2017-10-20T12:31:29.989Z,61.70
2017-10-20T12:33:58.094Z,61.30
2017-10-20T12:36:26.978Z,61.50
2017-10-20T12:38:55.819Z,60.10
2017-10-20T12:41:23.899Z,58.00
2017-10-20T12:43:51.991Z,58.00
2017-10-20T12:46:21.202Z,55.90
2017-10-20T12:48:49.328Z,51.90
2017-10-20T12:51:17.412Z,50.70
2017-10-20T12:53:47.007Z,52.20
2017-10-20T12:56:15.111Z,48.60
2017-10-20T12:58:43.203Z,48.60
2017-10-20T13:03:41.779Z,47.70
2017-10-20T13:06:09.864Z,48.10
2017-10-20T13:08:39.119Z,45.50
2017-10-20T13:11:07.203Z,44.50
2017-10-20T13:13:35.287Z,43.20
2017-10-20T13:16:04.162Z,41.60
2017-10-20T13:18:33.380Z,39.90
2017-10-20T13:21:01.459Z,41.10
2017-10-20T13:23:29.620Z,41.70
2017-10-20T13:25:57.694Z,41.40
2017-10-20T13:28:25.785Z,42.60
2017-10-20T13:30:53.875Z,42.40
2017-10-20T13:33:22.476Z,42.80
2017-10-20T13:35:50.569Z,40.20
2017-10-20T13:38:18.651Z,36.80
2017-10-20T13:40:46.771Z,35.90
2017-10-20T13:43:16.380Z,34.30
2017-10-20T13:45:44.871Z,30.10
2017-10-20T13:48:14.493Z,29.60
2017-10-20T13:50:42.568Z,27.20
2017-10-20T13:53:10.683Z,26.70
2017-10-20T13:55:38.764Z,28.30
2017-10-20T13:58:06.874Z,29.00
2017-10-20T14:00:35.439Z,31.30
2017-10-20T14:03:05.105Z,34.50
2017-10-20T14:05:33.179Z,36.70
2017-10-20T14:08:01.323Z,37.70
2017-10-20T14:10:29.405Z,38.60
2017-10-20T14:12:57.515Z,38.30
2017-10-20T14:15:25.592Z,37.30
2017-10-20T14:17:53.671Z,38.30
2017-10-20T14:20:22.532Z,38.30
2017-10-20T14:22:51.035Z,38.50
2017-10-20T14:25:19.109Z,38.30
2017-10-20T14:30:16.577Z,38.30
2017-10-20T14:32:44.646Z,35.50
2017-10-20T14:35:13.858Z,36.90
2017-10-20T14:37:43.090Z,36.50
2017-10-20T14:40:11.600Z,36.50
2017-10-20T14:42:40.067Z,37.30
2017-10-20T14:45:08.930Z,36.40
2017-10-20T14:47:37.025Z,36.60
2017-10-20T14:50:06.255Z,37.70
2017-10-20T14:52:34.330Z,37.40
2017-10-20T14:55:02.439Z,36.80
2017-10-20T14:57:31.300Z,37.60
2017-10-20T14:59:59.380Z,37.20
2017-10-20T15:02:27.486Z,36.80
2017-10-20T15:04:55.567Z,37.00
2017-10-20T15:07:23.678Z,37.30
2017-10-20T15:09:51.787Z,37.30
2017-10-20T15:12:20.640Z,38.40
2017-10-20T15:14:49.503Z,38.60
2017-10-20T15:17:17.597Z,38.10
2017-10-20T15:19:47.188Z,38.80
2017-10-20T15:22:15.267Z,39.10
2017-10-20T15:24:43.769Z,38.70
2017-10-20T15:29:41.978Z,40.00
2017-10-20T15:32:10.084Z,39.80
2017-10-20T15:34:38.190Z,40.70
2017-10-20T15:37:06.259Z,40.70
2017-10-20T15:39:34.364Z,40.20
2017-10-20T15:42:03.981Z,40.70
2017-10-20T15:44:32.051Z,40.60
2017-10-20T15:47:00.166Z,41.20
2017-10-20T15:51:58.365Z,41.80
2017-10-20T15:54:27.748Z,41.90
2017-10-20T15:56:55.838Z,41.80
2017-10-20T15:59:24.694Z,42.60
2017-10-20T16:01:53.632Z,43.30
2017-10-20T16:04:23.200Z,42.70
2017-10-20T16:06:52.058Z,43.70
2017-10-20T16:09:20.167Z,43.20
2017-10-20T16:11:48.683Z,43.30
2017-10-20T16:14:16.766Z,43.80
2017-10-20T16:16:44.874Z,43.80
2017-10-20T16:19:12.961Z,43.70
2017-10-20T16:21:41.042Z,43.80
2017-10-20T16:24:09.153Z,44.10
2017-10-20T16:26:37.250Z,45.40
2017-10-20T16:29:05.739Z,45.40
2017-10-20T16:31:33.814Z,45.60
2017-10-20T16:34:01.919Z,46.10
2017-10-20T16:36:30.005Z,46.90
2017-10-20T16:41:28.230Z,48.80
2017-10-20T16:46:25.719Z,49.20
2017-10-20T16:48:53.798Z,49.50
2017-10-20T16:51:21.897Z,50.20
2017-10-20T16:56:19.319Z,51.30
2017-10-20T16:58:47.426Z,52.00
2017-10-20T17:01:15.538Z,52.20
2017-10-20T17:03:43.618Z,52.90
2017-10-20T17:06:11.691Z,52.90
2017-10-20T17:08:39.812Z,52.90
2017-10-20T17:11:07.914Z,52.90
2017-10-20T17:13:36.793Z,54.00
2017-10-20T17:16:05.640Z,55.30
2017-10-20T17:18:33.755Z,55.60
2017-10-20T17:21:01.842Z,55.40
2017-10-20T17:23:29.934Z,55.80
2017-10-20T17:25:58.426Z,56.00
2017-10-20T17:28:26.507Z,56.00
2017-10-20T17:30:54.619Z,56.60
2017-10-20T17:33:22.707Z,56.80
2017-10-20T17:35:50.787Z,57.50
2017-10-20T17:38:18.895Z,57.20
2017-10-20T17:40:47.008Z,57.20
2017-10-20T17:43:16.223Z,57.30
2017-10-20T17:45:44.322Z,56.60
2017-10-20T17:48:12.795Z,56.90
2017-10-20T17:50:42.033Z,57.30
2017-10-20T17:53:10.102Z,58.30
2017-10-20T17:55:38.222Z,58.40
2017-10-20T17:58:06.360Z,58.90
2017-10-20T18:00:34.427Z,59.70
2017-10-20T18:03:02.505Z,59.90
2017-10-20T18:05:31.747Z,60.00
2017-10-20T18:08:00.235Z,60.10
2017-10-20T18:10:29.089Z,61.60
2017-10-20T18:12:57.185Z,61.00
2017-10-20T18:15:26.028Z,61.00
2017-10-20T18:17:54.130Z,60.30
2017-10-20T18:20:23.790Z,61.60
2017-10-20T18:22:51.897Z,61.50
2017-10-20T18:25:19.962Z,60.80
2017-10-20T18:27:48.090Z,59.90
2017-10-20T18:30:16.173Z,59.00
2017-10-20T18:35:14.549Z,60.20
2017-10-20T18:37:42.692Z,59.90
2017-10-20T18:40:11.530Z,63.30
2017-10-20T18:42:39.638Z,64.30
2017-10-20T18:45:07.743Z,63.50
2017-10-20T18:47:36.597Z,65.00
2017-10-20T18:50:04.711Z,64.90
2017-10-20T18:52:32.787Z,66.00
2017-10-20T18:55:00.887Z,66.80
2017-10-20T18:57:28.974Z,67.50
2017-10-20T18:59:58.238Z,67.00
2017-10-20T19:02:26.316Z,68.30
2017-10-20T19:04:54.401Z,70.50
2017-10-20T19:07:22.504Z,67.70
2017-10-20T19:09:50.998Z,67.60
2017-10-20T19:12:19.134Z,65.20
2017-10-20T19:17:17.352Z,63.00
2017-10-20T19:19:45.464Z,65.80
2017-10-20T19:22:13.580Z,65.40
2017-10-20T19:24:42.823Z,65.00
2017-10-20T19:27:11.675Z,65.20
2017-10-20T19:29:39.795Z,64.40
2017-10-20T19:32:07.914Z,63.50
2017-10-20T19:34:36.039Z,63.60
2017-10-20T19:37:04.134Z,63.10
2017-10-20T19:39:32.234Z,64.30
2017-10-20T19:42:00.340Z,66.30
2017-10-20T19:44:29.199Z,64.70
2017-10-20T19:46:57.274Z,64.70
2017-10-20T19:49:25.384Z,65.20
2017-10-20T19:51:54.230Z,64.80
2017-10-20T19:54:22.327Z,63.40
2017-10-20T19:56:50.433Z,63.70
2017-10-20T19:59:18.531Z,63.50
2017-10-20T20:01:46.636Z,65.20
2017-10-20T20:04:14.795Z,67.30
2017-10-20T20:06:42.862Z,66.70
2017-10-20T20:09:10.984Z,67.30
2017-10-20T20:11:39.064Z,66.60
2017-10-20T20:14:07.921Z,63.90
2017-10-20T20:16:36.045Z,63.10
2017-10-20T20:19:04.141Z,64.30
2017-10-20T20:21:32.230Z,64.00
2017-10-20T20:24:00.340Z,64.60
2017-10-20T20:26:28.434Z,64.10
2017-10-20T20:28:56.530Z,63.50
2017-10-20T20:31:24.614Z,62.10
2017-10-20T20:33:53.122Z,62.30
2017-10-20T20:36:21.234Z,62.50
2017-10-20T20:38:49.365Z,63.10
2017-10-20T20:41:17.470Z,63.80
2017-10-20T20:43:45.558Z,62.70
2017-10-20T20:46:13.654Z,62.80
2017-10-20T20:48:41.818Z,61.80
2017-10-20T20:51:09.915Z,64.60
2017-10-20T20:53:38.003Z,64.40
2017-10-20T20:56:06.089Z,63.80
2017-10-20T20:58:34.955Z,64.00
2017-10-20T21:01:03.022Z,62.50
2017-10-20T21:03:31.104Z,62.90
2017-10-20T21:05:59.195Z,63.60
2017-10-20T21:08:27.304Z,62.70
2017-10-20T21:10:55.375Z,64.60
2017-10-20T21:13:23.474Z,63.80
2017-10-20T21:15:51.575Z,65.70
2017-10-20T21:18:21.183Z,65.70
2017-10-20T21:20:50.030Z,66.70
2017-10-20T21:23:18.143Z,64.60
2017-10-20T21:25:46.984Z,65.40
2017-10-20T21:28:15.094Z,65.20
2017-10-20T21:30:43.260Z,67.40
2017-10-20T21:33:11.383Z,65.10
2017-10-20T21:35:39.507Z,65.70
2017-10-20T21:38:07.589Z,67.70
2017-10-20T21:40:35.691Z,66.60
2017-10-20T21:43:04.551Z,69.00
2017-10-20T21:45:33.592Z,68.30
2017-10-20T21:48:01.679Z,64.30
2017-10-20T21:50:29.782Z,67.50
2017-10-20T21:52:57.875Z,68.00
2017-10-20T21:55:26.729Z,66.70
2017-10-20T21:57:54.833Z,64.40
2017-10-20T22:00:22.946Z,64.70
2017-10-20T22:02:51.018Z,63.80
2017-10-20T22:05:19.110Z,63.10
2017-10-20T22:07:47.207Z,62.50
2017-10-20T22:10:15.290Z,66.00
2017-10-20T22:12:43.424Z,63.70
2017-10-20T22:15:11.514Z,63.00
2017-10-20T22:17:40.370Z,62.80
2017-10-20T22:20:08.477Z,64.10
2017-10-20T22:22:36.556Z,63.00
2017-10-20T22:25:04.671Z,63.40
2017-10-20T22:27:33.514Z,62.50
2017-10-20T22:30:01.595Z,62.50
2017-10-20T22:32:29.701Z,61.80
2017-10-20T22:34:58.539Z,63.20
2017-10-20T22:37:26.646Z,63.10
2017-10-20T22:39:54.727Z,63.20
2017-10-20T22:42:23.234Z,62.90
2017-10-20T22:44:51.311Z,61.40
2017-10-20T22:47:19.396Z,61.00
2017-10-20T22:49:47.508Z,61.40
2017-10-20T22:52:15.580Z,61.10
2017-10-20T22:54:43.689Z,61.80
2017-10-20T22:57:11.775Z,62.60
2017-10-20T22:59:39.870Z,60.50
2017-10-20T23:02:07.960Z,60.70
2017-10-20T23:04:36.502Z,59.30
2017-10-20T23:07:04.575Z,63.60
2017-10-20T23:09:32.681Z,64.30
2017-10-20T23:12:00.761Z,62.60
2017-10-20T23:14:28.878Z,63.60
2017-10-20T23:16:56.957Z,64.10
2017-10-20T23:19:25.037Z,65.30
2017-10-20T23:21:53.138Z,65.00
2017-10-20T23:24:21.219Z,63.20
2017-10-20T23:26:49.295Z,63.50
2017-10-20T23:29:17.406Z,62.20
2017-10-20T23:31:45.483Z,63.40
2017-10-20T23:34:13.559Z,63.50
2017-10-20T23:36:41.686Z,62.00
2017-10-20T23:39:09.760Z,62.60
2017-10-20T23:41:37.834Z,63.30
2017-10-20T23:44:05.930Z,63.40
2017-10-20T23:46:34.771Z,66.20
2017-10-20T23:49:02.874Z,66.20
2017-10-20T23:51:30.951Z,64.50
2017-10-20T23:53:59.042Z,64.50
2017-10-20T23:56:27.897Z,64.00
